KSEM/SEM METAR and TAF weather

Enter ICAO airport designator
Station Type Date Time Source
KSEM METAR 2019/02/20 23:35 UTC NOAA

KSEM 202335Z AUTO 00000KT 1 3/4SM VCTS RA 19/18 A2994 RMK AO2 LTG DSNT ALQDS


Station Type Date Time Source
KSEM Decoded METAR 2019/02/20 23:35 UTC NOAA

Craig Field / Selma, AL, United States (KSEM) 32-21N 086-59W
Feb 20, 2019 - 06:35 PM EST / 2019.02.20 2335 UTC
Wind: Calm:0
Visibility: 1 3/4 mile(s):0
Weather: thunder in the vicinity; rain; Lightning observed
Temperature: 66 F (19 C)
Dew Point: 64 F (18 C)
Relative Humidity: 93%
Pressure (altimeter): 29.94 in. Hg (1013 hPa)
ob: KSEM 202335Z AUTO 00000KT 1 3/4SM VCTS RA 19/18 A2994 RMK AO2 LTG DSNT ALQDS
cycle: 23

Station Type Date Time Source
KSEM TAF UTC NOAA

Error!


Example: see airport list